Lazurite — UBLC — position and weather

sailwx.info

Track history (hours):
 
Tides and Currents Weather Stations Pressure Air Temp Water Temp Dewpoint Dewpoint Depression Visibility Wind Speed Wind Dir Waves Ship Positions

Lazurite

Last reported at 2017-Oct-21 04:54 UTC. Time now 2017-Oct-22 05:03 UTC.
Position N 59°47' E 024°18'.

Length 90 m; draft 6.7 m.

Type: Cargo ship. MMSI: 273338540.

Date/timePositionNaut miles runAvg speedWind from/ knotsBaromVisibWave heightAir tempDewpointWater temp
2017-Oct-21 04:54N 59°47' E 024°18'4 8.9
2017-Oct-21 04:30N 59°47' E 024°25'4 8.6
2017-Oct-21 04:01N 59°48' E 024°33'4 8.8
2017-Oct-21 03:31N 59°49' E 024°42'4 8.8
2017-Oct-21 03:00N 59°50' E 024°51'4 8.8
2017-Oct-21 02:31N 59°51' E 024°59'37 8.8
2017-Oct-20 22:16N 59°59' E 026°12'2 8.8
2017-Oct-20 22:01N 59°59' E 026°16'5 8.9
2017-Oct-20 21:30N 60°00' E 026°25'4 8.8
2017-Oct-20 21:00N 60°01' E 026°33'4 8.8
2017-Oct-20 20:31N 60°01' E 026°42'4 8.9
2017-Oct-20 20:01N 60°01' E 026°51'5 9.1
2017-Oct-20 19:30N 59°60' E 027°00'4 8.5
2017-Oct-20 19:01N 60°01' E 027°08'4 8.8
2017-Oct-20 18:31N 60°03' E 027°16'5 9.0
2017-Oct-20 18:00N 60°06' E 027°24'4 9.0
2017-Oct-20 17:30N 60°08' E 027°32'4 8.9
2017-Oct-20 17:00N 60°10' E 027°39'18 8.5
2017-Oct-20 14:56N 60°08' E 028°14'55 8.6
2017-Oct-20 08:37N 59°55' E 030°00'1 9.1
2017-Oct-20 08:30N 59°55' E 030°02'4 8.2
2017-Oct-20 08:00N 59°53' E 030°10'1 2.5
2017-Oct-20 07:29N 59°53' E 030°12'0 0.0
2017-Oct-20 06:57N 59°53' E 030°12'0 0.0
2017-Oct-20 06:24N 59°53' E 030°12'0 0.0
2017-Oct-20 06:00N 59°53' E 030°12'0 0.0
2017-Oct-20 05:30N 59°53' E 030°12'0 0.0
2017-Oct-20 04:58N 59°53' E 030°12'0 0.0
2017-Oct-20 04:28N 59°53' E 030°12'0 0.0
2017-Oct-20 04:00N 59°53' E 030°12'0 0.0
2017-Oct-20 03:23N 59°53' E 030°12'0 0.0
2017-Oct-20 02:55N 59°53' E 030°12'0 0.0
2017-Oct-20 02:28N 59°53' E 030°12'0 0.0
2017-Oct-20 01:58N 59°53' E 030°12'0 0.0
2017-Oct-20 01:28N 59°53' E 030°12'0 0.0
2017-Oct-20 00:58N 59°53' E 030°12'0 0.0
2017-Oct-20 00:30N 59°53' E 030°12'0 0.0
2017-Oct-19 23:58N 59°53' E 030°12'0 0.0
2017-Oct-19 23:30N 59°53' E 030°12'0 0.0
2017-Oct-19 22:58N 59°53' E 030°12'0 0.0
2017-Oct-19 22:28N 59°53' E 030°12'0 0.0
2017-Oct-19 22:00N 59°53' E 030°12'0 0.0
2017-Oct-19 21:30N 59°53' E 030°12'0 0.0
2017-Oct-19 20:59N 59°53' E 030°12'0 0.0
2017-Oct-19 20:24N 59°53' E 030°12'0 0.0
2017-Oct-19 19:58N 59°53' E 030°12'0 0.0
2017-Oct-19 19:30N 59°53' E 030°12'0 0.0
2017-Oct-19 18:57N 59°53' E 030°12'0 0.0
2017-Oct-19 18:28N 59°53' E 030°12'0 0.0
2017-Oct-19 18:00N 59°53' E 030°12'0 0.0
2017-Oct-19 17:28N 59°53' E 030°12'0 0.0
2017-Oct-19 16:58N 59°53' E 030°12'0 0.0
2017-Oct-19 16:28N 59°53' E 030°12'0 0.0
2017-Oct-19 15:55N 59°53' E 030°12'0 0.0
2017-Oct-19 15:29N 59°53' E 030°12'0 0.0
2017-Oct-19 14:59N 59°53' E 030°12'0 0.0
2017-Oct-19 14:29N 59°53' E 030°12'0 0.0
2017-Oct-19 13:56N 59°53' E 030°12'0 0.0
2017-Oct-19 13:28N 59°53' E 030°12'0 0.0
2017-Oct-19 12:59N 59°53' E 030°12'0 0.0
2017-Oct-19 12:28N 59°53' E 030°12'0 0.0
2017-Oct-19 12:00N 59°53' E 030°12'0 0.0
2017-Oct-19 11:28N 59°53' E 030°12'0 0.0
2017-Oct-19 10:59N 59°53' E 030°12'0 0.0
2017-Oct-19 10:30N 59°53' E 030°12'0 0.0
2017-Oct-19 10:00N 59°53' E 030°12'0 0.0
2017-Oct-19 09:29N 59°53' E 030°12'0 0.0
2017-Oct-19 08:59N 59°53' E 030°12'0 0.0
2017-Oct-19 08:21N 59°53' E 030°12'0 0.0
2017-Oct-19 08:00N 59°53' E 030°12'0 0.0
2017-Oct-19 07:30N 59°53' E 030°12'0 0.0
2017-Oct-19 06:57N 59°53' E 030°12'0 0.0
2017-Oct-19 06:19N 59°53' E 030°12'0 0.0
2017-Oct-19 05:58N 59°53' E 030°12'0 0.0
2017-Oct-19 05:30N 59°53' E 030°12'0 0.0
2017-Oct-19 04:59N 59°53' E 030°12'0 0.0
2017-Oct-19 04:30N 59°53' E 030°12'0 0.0
2017-Oct-19 03:59N 59°53' E 030°12'0 0.0
2017-Oct-19 03:30N 59°53' E 030°12'0 0.0
2017-Oct-19 03:00N 59°53' E 030°12'1 1.5
2017-Oct-19 02:31N 59°53' E 030°11'4 7.3
2017-Oct-19 02:00N 59°55' E 030°04'51 4.1
2017-Oct-18 13:49N 60°03' E 028°24'3 9.6
2017-Oct-18 13:28N 60°05' E 028°19'4 9.3
2017-Oct-18 13:00N 60°08' E 028°12'5 9.6
2017-Oct-18 12:31N 60°09' E 028°03'5 9.6
2017-Oct-18 12:01N 60°10' E 027°53'4 8.8
2017-Oct-18 11:31N 60°10' E 027°44'5 9.2
2017-Oct-18 11:01N 60°08' E 027°37'5 9.3
2017-Oct-18 10:31N 60°05' E 027°29'5 9.1
2017-Oct-18 10:01N 60°03' E 027°21'4 8.8
2017-Oct-18 09:31N 60°01' E 027°13'4 8.8
2017-Oct-18 09:00N 59°58' E 027°06'4 8.7
2017-Oct-18 08:30N 59°58' E 026°57'5 9.4
2017-Oct-18 08:01N 59°59' E 026°48'5 9.2
2017-Oct-18 07:31N 59°59' E 026°39'5 9.4
2017-Oct-18 07:01N 59°58' E 026°30'5 9.5
2017-Oct-18 06:31N 59°57' E 026°20'42 9.8
2017-Oct-18 02:15N 59°47' E 024°60'210.0
2017-Oct-18 02:01N 59°46' E 024°55'510.1
2017-Oct-18 01:31N 59°45' E 024°46'5 9.5
2017-Oct-18 01:01N 59°43' E 024°37'5 9.8
2017-Oct-18 00:30N 59°40' E 024°29'5 9.5
2017-Oct-18 00:00N 59°36' E 024°24'3 6.7
2017-Oct-17 23:31N 59°33' E 024°27'4 7.7
2017-Oct-17 23:01N 59°30' E 024°33'4 8.4
2017-Oct-17 22:31N 59°27' E 024°38'1 0.0
2017-Oct-17 03:13N 59°27' E 024°40'0 0.0
2017-Oct-17 02:54N 59°27' E 024°40'0 0.1
2017-Oct-17 01:41N 59°27' E 024°40'0 2.1
2017-Oct-17 01:30N 59°27' E 024°39'2 4.1
2017-Oct-17 01:00N 59°28' E 024°36'1 1.4
2017-Oct-17 00:25N 59°29' E 024°36'0 0.0
2017-Oct-16 23:58N 59°29' E 024°36'0 0.0
2017-Oct-16 23:29N 59°29' E 024°36'0 0.0
2017-Oct-16 22:59N 59°29' E 024°36'0 0.0
2017-Oct-16 22:30N 59°29' E 024°36'0 0.0
2017-Oct-16 22:00N 59°29' E 024°36'0 0.0
2017-Oct-16 21:28N 59°29' E 024°36'0 0.0
2017-Oct-16 20:58N 59°29' E 024°36'0 0.0
2017-Oct-16 20:28N 59°29' E 024°36'0 0.0
2017-Oct-16 19:59N 59°29' E 024°36'0 0.0
2017-Oct-16 19:28N 59°29' E 024°36'0 0.0
2017-Oct-16 18:58N 59°29' E 024°36'0 0.0
2017-Oct-16 18:30N 59°29' E 024°36'0 0.0
2017-Oct-16 18:00N 59°29' E 024°36'0 0.0
2017-Oct-16 17:28N 59°29' E 024°36'0 0.0
2017-Oct-16 17:00N 59°29' E 024°36'0 0.0
2017-Oct-16 16:26N 59°29' E 024°36'0 0.0
2017-Oct-16 16:00N 59°29' E 024°36'0 0.0
2017-Oct-16 15:30N 59°29' E 024°36'0 0.0
2017-Oct-16 15:00N 59°29' E 024°36'0 0.0
2017-Oct-16 14:30N 59°29' E 024°36'0 0.0
2017-Oct-16 13:29N 59°29' E 024°36'0 0.0
2017-Oct-16 13:00N 59°29' E 024°36'0 0.0
2017-Oct-16 12:28N 59°29' E 024°36'0 0.0
2017-Oct-16 12:00N 59°29' E 024°36'0 0.0
2017-Oct-16 11:28N 59°29' E 024°36'1 2.8
2017-Oct-16 11:01N 59°29' E 024°34'4 8.2
2017-Oct-16 10:30N 59°30' E 024°26'343 8.3
2017-Oct-14 17:00N 55°51' E 016°11'48 8.7
2017-Oct-14 11:27N 55°29' E 014°56'5 8.9
2017-Oct-14 10:56N 55°26' E 014°49'4 8.9
2017-Oct-14 10:30N 55°25' E 014°43'6 8.6
2017-Oct-14 09:51N 55°21' E 014°36'9 8.8
2017-Oct-14 08:49N 55°14' E 014°25'4 8.6
2017-Oct-14 08:23N 55°12' E 014°20'4 9.0
2017-Oct-14 07:54N 55°11' E 014°12'52 8.6
2017-Oct-14 01:52N 55°17' E 012°42'3 7.7
2017-Oct-14 01:30N 55°19' E 012°38'4 7.9
2017-Oct-14 01:00N 55°23' E 012°38'4 7.8
2017-Oct-14 00:30N 55°27' E 012°40'4 7.7
2017-Oct-14 00:01N 55°30' E 012°41'4 7.5
2017-Oct-13 23:30N 55°34' E 012°42'4 7.1
2017-Oct-13 23:00N 55°38' E 012°42'4 7.5
2017-Oct-13 22:30N 55°41' E 012°41'4 8.6
2017-Oct-13 22:01N 55°46' E 012°41'4 8.2
2017-Oct-13 21:30N 55°50' E 012°41'4 8.6
2017-Oct-13 21:01N 55°54' E 012°39'4 8.4
2017-Oct-13 20:31N 55°58' E 012°38'4 7.9
2017-Oct-13 20:00N 56°02' E 012°38'3 6.6
2017-Oct-13 19:31N 56°05' E 012°35'4 7.7
2017-Oct-13 19:00N 56°07' E 012°29'83 8.1
2017-Oct-13 08:41N 57°23' E 011°25'1 8.1
2017-Oct-13 08:30N 57°24' E 011°24'4 8.1
2017-Oct-13 07:58N 57°28' E 011°21'4 8.3
2017-Oct-13 07:29N 57°30' E 011°15'4 8.3
2017-Oct-13 07:01N 57°33' E 011°10'4 8.6
2017-Oct-13 06:30N 57°36' E 011°04'4 8.2
2017-Oct-13 06:00N 57°39' E 010°58'110 8.1
2017-Oct-12 16:19N 57°41' E 007°32'2 6.8
2017-Oct-12 16:00N 57°42' E 007°28'4 7.1
2017-Oct-12 15:30N 57°42' E 007°21'3 7.0
2017-Oct-12 15:00N 57°42' E 007°15'4 7.2
2017-Oct-12 14:30N 57°42' E 007°08'128 6.3
2017-Oct-11 18:02N 59°26' E 004°44'0 6.8
2017-Oct-11 18:00N 59°26' E 004°44'4 6.9
2017-Oct-11 17:30N 59°29' E 004°45'3 7.0
2017-Oct-11 17:01N 59°33' E 004°47'  
Track history (hours):
 
Tides and Currents Weather Stations Pressure Air Temp Water Temp Dewpoint Dewpoint Depression Visibility Wind Speed Wind Dir Waves Ship Positions

Lazurite

Last reported at 2017-Oct-21 04:54 UTC. Time now 2017-Oct-22 05:03 UTC.
Position N 59°47' E 024°18'.

Length 90 m; draft 6.7 m.

Type: Cargo ship. MMSI: 273338540.

Date/timePositionNaut miles runAvg speedWind from/ knotsBaromVisibWave heightAir tempDewpointWater temp
2017-Oct-21 04:54N 59°47' E 024°18'4 8.9
2017-Oct-21 04:30N 59°47' E 024°25'4 8.6
2017-Oct-21 04:01N 59°48' E 024°33'4 8.8
2017-Oct-21 03:31N 59°49' E 024°42'4 8.8
2017-Oct-21 03:00N 59°50' E 024°51'4 8.8
2017-Oct-21 02:31N 59°51' E 024°59'37 8.8
2017-Oct-20 22:16N 59°59' E 026°12'2 8.8
2017-Oct-20 22:01N 59°59' E 026°16'5 8.9
2017-Oct-20 21:30N 60°00' E 026°25'4 8.8
2017-Oct-20 21:00N 60°01' E 026°33'4 8.8
2017-Oct-20 20:31N 60°01' E 026°42'4 8.9
2017-Oct-20 20:01N 60°01' E 026°51'5 9.1
2017-Oct-20 19:30N 59°60' E 027°00'4 8.5
2017-Oct-20 19:01N 60°01' E 027°08'4 8.8
2017-Oct-20 18:31N 60°03' E 027°16'5 9.0
2017-Oct-20 18:00N 60°06' E 027°24'4 9.0
2017-Oct-20 17:30N 60°08' E 027°32'4 8.9
2017-Oct-20 17:00N 60°10' E 027°39'18 8.5
2017-Oct-20 14:56N 60°08' E 028°14'55 8.6
2017-Oct-20 08:37N 59°55' E 030°00'1 9.1
2017-Oct-20 08:30N 59°55' E 030°02'4 8.2
2017-Oct-20 08:00N 59°53' E 030°10'1 2.5
2017-Oct-20 07:29N 59°53' E 030°12'0 0.0
2017-Oct-20 06:57N 59°53' E 030°12'0 0.0
2017-Oct-20 06:24N 59°53' E 030°12'0 0.0
2017-Oct-20 06:00N 59°53' E 030°12'0 0.0
2017-Oct-20 05:30N 59°53' E 030°12'0 0.0
2017-Oct-20 04:58N 59°53' E 030°12'0 0.0
2017-Oct-20 04:28N 59°53' E 030°12'0 0.0
2017-Oct-20 04:00N 59°53' E 030°12'0 0.0
2017-Oct-20 03:23N 59°53' E 030°12'0 0.0
2017-Oct-20 02:55N 59°53' E 030°12'0 0.0
2017-Oct-20 02:28N 59°53' E 030°12'0 0.0
2017-Oct-20 01:58N 59°53' E 030°12'0 0.0
2017-Oct-20 01:28N 59°53' E 030°12'0 0.0
2017-Oct-20 00:58N 59°53' E 030°12'0 0.0
2017-Oct-20 00:30N 59°53' E 030°12'0 0.0
2017-Oct-19 23:58N 59°53' E 030°12'0 0.0
2017-Oct-19 23:30N 59°53' E 030°12'0 0.0
2017-Oct-19 22:58N 59°53' E 030°12'0 0.0
2017-Oct-19 22:28N 59°53' E 030°12'0 0.0
2017-Oct-19 22:00N 59°53' E 030°12'0 0.0
2017-Oct-19 21:30N 59°53' E 030°12'0 0.0
2017-Oct-19 20:59N 59°53' E 030°12'0 0.0
2017-Oct-19 20:24N 59°53' E 030°12'0 0.0
2017-Oct-19 19:58N 59°53' E 030°12'0 0.0
2017-Oct-19 19:30N 59°53' E 030°12'0 0.0
2017-Oct-19 18:57N 59°53' E 030°12'0 0.0
2017-Oct-19 18:28N 59°53' E 030°12'0 0.0
2017-Oct-19 18:00N 59°53' E 030°12'0 0.0
2017-Oct-19 17:28N 59°53' E 030°12'0 0.0
2017-Oct-19 16:58N 59°53' E 030°12'0 0.0
2017-Oct-19 16:28N 59°53' E 030°12'0 0.0
2017-Oct-19 15:55N 59°53' E 030°12'0 0.0
2017-Oct-19 15:29N 59°53' E 030°12'0 0.0
2017-Oct-19 14:59N 59°53' E 030°12'0 0.0
2017-Oct-19 14:29N 59°53' E 030°12'0 0.0
2017-Oct-19 13:56N 59°53' E 030°12'0 0.0
2017-Oct-19 13:28N 59°53' E 030°12'0 0.0
2017-Oct-19 12:59N 59°53' E 030°12'0 0.0
2017-Oct-19 12:28N 59°53' E 030°12'0 0.0
2017-Oct-19 12:00N 59°53' E 030°12'0 0.0
2017-Oct-19 11:28N 59°53' E 030°12'0 0.0
2017-Oct-19 10:59N 59°53' E 030°12'0 0.0
2017-Oct-19 10:30N 59°53' E 030°12'0 0.0
2017-Oct-19 10:00N 59°53' E 030°12'0 0.0
2017-Oct-19 09:29N 59°53' E 030°12'0 0.0
2017-Oct-19 08:59N 59°53' E 030°12'0 0.0
2017-Oct-19 08:21N 59°53' E 030°12'0 0.0
2017-Oct-19 08:00N 59°53' E 030°12'0 0.0
2017-Oct-19 07:30N 59°53' E 030°12'0 0.0
2017-Oct-19 06:57N 59°53' E 030°12'0 0.0
2017-Oct-19 06:19N 59°53' E 030°12'0 0.0
2017-Oct-19 05:58N 59°53' E 030°12'0 0.0
2017-Oct-19 05:30N 59°53' E 030°12'0 0.0
2017-Oct-19 04:59N 59°53' E 030°12'0 0.0
2017-Oct-19 04:30N 59°53' E 030°12'0 0.0
2017-Oct-19 03:59N 59°53' E 030°12'0 0.0
2017-Oct-19 03:30N 59°53' E 030°12'0 0.0
2017-Oct-19 03:00N 59°53' E 030°12'1 1.5
2017-Oct-19 02:31N 59°53' E 030°11'4 7.3
2017-Oct-19 02:00N 59°55' E 030°04'51 4.1
2017-Oct-18 13:49N 60°03' E 028°24'3 9.6
2017-Oct-18 13:28N 60°05' E 028°19'4 9.3
2017-Oct-18 13:00N 60°08' E 028°12'5 9.6
2017-Oct-18 12:31N 60°09' E 028°03'5 9.6
2017-Oct-18 12:01N 60°10' E 027°53'4 8.8
2017-Oct-18 11:31N 60°10' E 027°44'5 9.2
2017-Oct-18 11:01N 60°08' E 027°37'5 9.3
2017-Oct-18 10:31N 60°05' E 027°29'5 9.1
2017-Oct-18 10:01N 60°03' E 027°21'4 8.8
2017-Oct-18 09:31N 60°01' E 027°13'4 8.8
2017-Oct-18 09:00N 59°58' E 027°06'4 8.7
2017-Oct-18 08:30N 59°58' E 026°57'5 9.4
2017-Oct-18 08:01N 59°59' E 026°48'5 9.2
2017-Oct-18 07:31N 59°59' E 026°39'5 9.4
2017-Oct-18 07:01N 59°58' E 026°30'5 9.5
2017-Oct-18 06:31N 59°57' E 026°20'42 9.8
2017-Oct-18 02:15N 59°47' E 024°60'210.0
2017-Oct-18 02:01N 59°46' E 024°55'510.1
2017-Oct-18 01:31N 59°45' E 024°46'5 9.5
2017-Oct-18 01:01N 59°43' E 024°37'5 9.8
2017-Oct-18 00:30N 59°40' E 024°29'5 9.5
2017-Oct-18 00:00N 59°36' E 024°24'3 6.7
2017-Oct-17 23:31N 59°33' E 024°27'4 7.7
2017-Oct-17 23:01N 59°30' E 024°33'4 8.4
2017-Oct-17 22:31N 59°27' E 024°38'1 0.0
2017-Oct-17 03:13N 59°27' E 024°40'0 0.0
2017-Oct-17 02:54N 59°27' E 024°40'0 0.1
2017-Oct-17 01:41N 59°27' E 024°40'0 2.1
2017-Oct-17 01:30N 59°27' E 024°39'2 4.1
2017-Oct-17 01:00N 59°28' E 024°36'1 1.4
2017-Oct-17 00:25N 59°29' E 024°36'0 0.0
2017-Oct-16 23:58N 59°29' E 024°36'0 0.0
2017-Oct-16 23:29N 59°29' E 024°36'0 0.0
2017-Oct-16 22:59N 59°29' E 024°36'0 0.0
2017-Oct-16 22:30N 59°29' E 024°36'0 0.0
2017-Oct-16 22:00N 59°29' E 024°36'0 0.0
2017-Oct-16 21:28N 59°29' E 024°36'0 0.0
2017-Oct-16 20:58N 59°29' E 024°36'0 0.0
2017-Oct-16 20:28N 59°29' E 024°36'0 0.0
2017-Oct-16 19:59N 59°29' E 024°36'0 0.0
2017-Oct-16 19:28N 59°29' E 024°36'0 0.0
2017-Oct-16 18:58N 59°29' E 024°36'0 0.0
2017-Oct-16 18:30N 59°29' E 024°36'0 0.0
2017-Oct-16 18:00N 59°29' E 024°36'0 0.0
2017-Oct-16 17:28N 59°29' E 024°36'0 0.0
2017-Oct-16 17:00N 59°29' E 024°36'0 0.0
2017-Oct-16 16:26N 59°29' E 024°36'0 0.0
2017-Oct-16 16:00N 59°29' E 024°36'0 0.0
2017-Oct-16 15:30N 59°29' E 024°36'0 0.0
2017-Oct-16 15:00N 59°29' E 024°36'0 0.0
2017-Oct-16 14:30N 59°29' E 024°36'0 0.0
2017-Oct-16 13:29N 59°29' E 024°36'0 0.0
2017-Oct-16 13:00N 59°29' E 024°36'0 0.0
2017-Oct-16 12:28N 59°29' E 024°36'0 0.0
2017-Oct-16 12:00N 59°29' E 024°36'0 0.0
2017-Oct-16 11:28N 59°29' E 024°36'1 2.8
2017-Oct-16 11:01N 59°29' E 024°34'4 8.2
2017-Oct-16 10:30N 59°30' E 024°26'343 8.3
2017-Oct-14 17:00N 55°51' E 016°11'48 8.7
2017-Oct-14 11:27N 55°29' E 014°56'5 8.9
2017-Oct-14 10:56N 55°26' E 014°49'4 8.9
2017-Oct-14 10:30N 55°25' E 014°43'6 8.6
2017-Oct-14 09:51N 55°21' E 014°36'9 8.8
2017-Oct-14 08:49N 55°14' E 014°25'4 8.6
2017-Oct-14 08:23N 55°12' E 014°20'4 9.0
2017-Oct-14 07:54N 55°11' E 014°12'52 8.6
2017-Oct-14 01:52N 55°17' E 012°42'3 7.7
2017-Oct-14 01:30N 55°19' E 012°38'4 7.9
2017-Oct-14 01:00N 55°23' E 012°38'4 7.8
2017-Oct-14 00:30N 55°27' E 012°40'4 7.7
2017-Oct-14 00:01N 55°30' E 012°41'4 7.5
2017-Oct-13 23:30N 55°34' E 012°42'4 7.1
2017-Oct-13 23:00N 55°38' E 012°42'4 7.5
2017-Oct-13 22:30N 55°41' E 012°41'4 8.6
2017-Oct-13 22:01N 55°46' E 012°41'4 8.2
2017-Oct-13 21:30N 55°50' E 012°41'4 8.6
2017-Oct-13 21:01N 55°54' E 012°39'4 8.4
2017-Oct-13 20:31N 55°58' E 012°38'4 7.9
2017-Oct-13 20:00N 56°02' E 012°38'3 6.6
2017-Oct-13 19:31N 56°05' E 012°35'4 7.7
2017-Oct-13 19:00N 56°07' E 012°29'83 8.1
2017-Oct-13 08:41N 57°23' E 011°25'1 8.1
2017-Oct-13 08:30N 57°24' E 011°24'4 8.1
2017-Oct-13 07:58N 57°28' E 011°21'4 8.3
2017-Oct-13 07:29N 57°30' E 011°15'4 8.3
2017-Oct-13 07:01N 57°33' E 011°10'4 8.6
2017-Oct-13 06:30N 57°36' E 011°04'4 8.2
2017-Oct-13 06:00N 57°39' E 010°58'110 8.1
2017-Oct-12 16:19N 57°41' E 007°32'2 6.8
2017-Oct-12 16:00N 57°42' E 007°28'4 7.1
2017-Oct-12 15:30N 57°42' E 007°21'3 7.0
2017-Oct-12 15:00N 57°42' E 007°15'4 7.2
2017-Oct-12 14:30N 57°42' E 007°08'128 6.3
2017-Oct-11 18:02N 59°26' E 004°44'0 6.8
2017-Oct-11 18:00N 59°26' E 004°44'4 6.9
2017-Oct-11 17:30N 59°29' E 004°45'3 7.0
2017-Oct-11 17:01N 59°33' E 004°47'  

Dump ship's entire track history